Time;durP1;ratioP1;P1;durP2;ratioP2;P2;SDS_P1;SDS_P2;PMS_P1;PMS_P2;Temp;Humidity;BMP_temperature;BMP_pressure;BME280_temperature;BME280_humidity;BME280_pressure;Samples;Min_cycle;Max_cycle;Signal;HPM_P1;HPM_P2
2022/03/04 04:59:41;;;;;;;34.65;18.30;;;;;;;2.35;70.71;100341.16;6212585;28;21094;-90
2022/03/04 05:02:45;;;;;;;36.80;19.10;;;;;;;2.45;70.08;100350.03;5237406;34;32463;-89
2022/03/04 05:05:48;;;;;;;36.55;20.23;;;;;;;2.48;70.04;100356.91;5237797;34;35313;-89
2022/03/04 05:08:51;;;;;;;40.20;19.48;;;;;;;2.41;70.42;100355.75;5238182;34;34498;-89
2022/03/04 05:12:05;;;;;;;37.72;18.12;;;;;;;2.38;71.21;100358.66;5274451;28;33935;-89
2022/03/04 05:15:08;;;;;;;32.95;18.25;;;;;;;2.34;71.35;100362.50;5271184;33;33525;-89
2022/03/04 05:18:11;;;;;;;38.72;18.25;;;;;;;2.32;71.60;100367.13;5321179;28;34900;-88
2022/03/04 05:21:14;;;;;;;39.90;19.67;;;;;;;2.32;71.59;100372.44;5316278;28;33861;-88
2022/03/04 05:24:17;;;;;;;36.22;18.62;;;;;;;2.26;72.04;100379.09;5272087;33;33893;-88
2022/03/04 05:27:20;;;;;;;35.25;19.48;;;;;;;2.31;71.43;100384.88;5293954;33;34629;-88
2022/03/04 05:30:23;;;;;;;37.28;18.33;;;;;;;2.47;70.98;100385.28;5293115;33;34580;-89
2022/03/04 05:33:26;;;;;;;37.88;18.77;;;;;;;2.47;70.48;100382.63;5293151;33;33928;-89
2022/03/04 05:36:29;;;;;;;36.33;18.10;;;;;;;2.42;70.74;100397.28;5292359;33;34420;-89
2022/03/04 05:39:32;;;;;;;40.95;19.33;;;;;;;2.46;70.28;100399.56;5292523;33;34869;-89
2022/03/04 05:42:35;;;;;;;38.40;19.50;;;;;;;2.39;69.79;100401.00;5293326;33;34039;-89
2022/03/04 05:45:38;;;;;;;40.67;19.87;;;;;;;2.31;69.08;100408.78;5292897;33;34588;-89
2022/03/04 05:48:58;;;;;;;38.28;21.00;;;;;;;2.37;69.36;100416.25;5327003;28;34393;-89
2022/03/04 05:52:01;;;;;;;43.35;21.17;;;;;;;2.32;69.32;100407.81;5321594;28;34314;-89
2022/03/04 05:55:05;;;;;;;42.58;20.40;;;;;;;2.31;69.34;100411.44;5276832;33;33736;-89
2022/03/04 05:58:11;;;;;;;37.28;19.83;;;;;;;2.33;69.28;100417.44;5288079;33;34253;-89
2022/03/04 06:01:14;;;;;;;39.00;20.88;;;;;;;2.22;69.61;100423.66;5292641;33;33965;-89
2022/03/04 06:04:17;;;;;;;41.67;20.67;;;;;;;2.27;70.00;100423.25;5295569;33;34017;-89
2022/03/04 06:07:20;;;;;;;38.58;20.35;;;;;;;2.26;70.00;100424.25;5298641;33;34365;-89
2022/03/04 06:10:23;;;;;;;40.33;20.65;;;;;;;2.31;69.53;100431.81;5294015;33;33954;-89
2022/03/04 06:13:26;;;;;;;45.40;20.52;;;;;;;2.24;70.04;100431.47;5308211;28;34163;-88
2022/03/04 06:16:33;;;;;;;48.83;25.60;;;;;;;2.34;70.11;100440.41;5274757;33;34070;-88
2022/03/04 06:19:39;;;;;;;45.22;23.73;;;;;;;2.36;69.54;100435.81;5308962;28;34065;-89
2022/03/04 06:23:17;;;;;;;42.78;24.50;;;;;;;2.41;69.43;100448.72;5276404;28;35310;31
2022/03/04 06:26:24;;;;;;;42.88;20.48;;;;;;;2.45;69.15;100447.50;5292216;33;34163;-88
2022/03/04 06:29:46;;;;;;;44.53;20.37;;;;;;;2.55;68.51;100448.47;5306382;28;33883;-89
2022/03/04 06:32:52;;;;;;;39.80;19.80;;;;;;;2.57;68.59;100456.28;5316352;28;33738;-89
2022/03/04 06:36:05;;;;;;;42.17;22.65;;;;;;;2.67;67.98;100458.09;5318552;28;32097;-88
2022/03/04 06:39:07;;;;;;;;;;;;;;;2.83;67.68;100462.97;5327781;28;33600;-90
2022/03/04 06:42:10;;;;;;;65.43;29.33;;;;;;;2.72;68.29;100455.91;5272134;33;34337;-89
2022/03/04 06:45:13;;;;;;;80.55;33.13;;;;;;;2.86;67.29;100457.41;5291019;28;33887;-89
2022/03/04 06:48:18;;;;;;;65.10;33.17;;;;;;;2.95;66.81;100455.81;5274603;33;33933;-89
2022/03/04 06:51:21;;;;;;;50.53;27.35;;;;;;;3.08;66.32;100458.31;5289410;33;35001;-89
2022/03/04 06:54:24;;;;;;;48.08;27.73;;;;;;;3.08;65.94;100456.50;5345552;28;34037;-88
2022/03/04 06:57:27;;;;;;;58.75;27.60;;;;;;;3.29;66.01;100461.81;5330777;28;34430;-88
2022/03/04 07:00:30;;;;;;;78.12;30.65;;;;;;;3.14;64.88;100461.31;5301888;28;33868;-88
2022/03/04 07:03:34;;;;;;;52.75;26.08;;;;;;;3.01;66.01;100473.06;5322658;28;34085;-88
2022/03/04 07:06:36;;;;;;;45.97;26.67;;;;;;;3.08;70.39;100484.91;5269215;33;35298;-89
2022/03/04 07:09:40;;;;;;;47.08;26.58;;;;;;;2.76;75.93;100487.56;5330473;28;35140;-88
2022/03/04 07:12:43;;;;;;;48.80;28.80;;;;;;;2.43;78.56;100498.13;5282417;33;33524;-88
2022/03/04 07:15:45;;;;;;;47.45;29.30;;;;;;;2.17;81.90;100491.37;5275246;33;34677;-88
2022/03/04 07:18:49;;;;;;;52.55;30.33;;;;;;;2.15;83.81;100495.97;5275273;33;34643;-88
2022/03/04 07:34:10;;;;;;;46.80;24.00;;;;;;;2.26;86.27;100514.56;4173954;28;20129;-89
2022/03/04 07:37:13;;;;;;;48.70;27.20;;;;;;;2.43;85.54;100514.06;5325870;28;33978;-88
2022/03/04 07:40:16;;;;;;;50.33;27.60;;;;;;;2.57;84.42;100520.06;5368195;28;35455;-90
2022/03/04 07:43:22;;;;;;;43.58;27.05;;;;;;;2.71;83.05;100517.16;5331026;28;34813;-88
2022/03/04 08:03:04;;;;;;;47.05;26.15;;;;;;;3.05;79.21;100530.38;3066747;28;20127;-89
2022/03/04 08:06:07;;;;;;;47.05;27.35;;;;;;;3.36;76.60;100528.69;5263909;33;33415;-89
2022/03/04 08:09:10;;;;;;;49.50;28.42;;;;;;;3.38;76.23;100532.06;5263809;33;33989;-89
2022/03/04 08:12:16;;;;;;;47.92;27.77;;;;;;;3.48;76.26;100518.81;5268073;33;34029;-88
2022/03/04 08:15:19;;;;;;;52.92;28.42;;;;;;;3.61;76.28;100533.66;5257768;33;34009;-89
2022/03/04 08:18:22;;;;;;;45.58;28.38;;;;;;;3.97;75.65;100528.81;5255356;33;33774;-90
2022/03/04 08:21:25;;;;;;;49.38;28.40;;;;;;;3.97;73.28;100533.31;5285730;28;33777;-90
2022/03/04 08:24:29;;;;;;;49.17;26.60;;;;;;;4.14;73.28;100526.53;5316985;28;33451;-90
2022/03/04 08:27:37;;;;;;;45.67;27.70;;;;;;;4.33;71.51;100531.97;5265517;33;33961;-89
2022/03/04 08:30:40;;;;;;;46.83;27.85;;;;;;;4.38;69.90;100523.53;5319464;28;33488;-89
2022/03/04 08:33:45;;;;;;;48.50;29.60;;;;;;;4.69;71.58;100524.38;5279849;33;35557;-89
2022/03/04 08:36:49;;;;;;;50.47;29.23;;;;;;;4.91;71.47;100525.94;5299880;28;33420;-90
2022/03/04 08:39:54;;;;;;;43.63;27.05;;;;;;;4.96;70.46;100532.56;5318980;28;33456;-89
2022/03/04 08:42:57;;;;;;;47.53;27.60;;;;;;;4.72;68.16;100518.75;5284635;33;32649;-87
2022/03/04 08:46:03;;;;;;;45.92;27.00;;;;;;;4.87;66.71;100527.22;5287165;33;33652;-88
2022/03/04 08:49:09;;;;;;;46.60;27.87;;;;;;;4.82;66.86;100532.09;5278920;33;34970;-91
2022/03/04 08:52:13;;;;;;;48.67;29.33;;;;;;;4.85;66.75;100523.84;5285938;33;34271;-91
2022/03/04 08:55:15;;;;;;;48.70;30.40;;;;;;;4.73;68.99;100531.94;5274739;33;33863;-88
2022/03/04 08:58:18;;;;;;;47.30;29.00;;;;;;;4.69;69.16;100535.03;5294886;33;33685;-87
2022/03/04 09:01:21;;;;;;;51.15;29.27;;;;;;;4.86;68.12;100531.72;5287441;33;34135;-87
2022/03/04 09:04:24;;;;;;;46.17;26.73;;;;;;;4.83;67.30;100537.31;5281431;33;33919;-86
2022/03/04 09:07:27;;;;;;;44.90;26.90;;;;;;;4.93;66.85;100537.34;5280166;33;34188;-89
2022/03/04 09:10:31;;;;;;;42.10;26.95;;;;;;;5.05;65.13;100530.88;5282354;33;33790;-88
2022/03/04 09:13:38;;;;;;;43.05;26.05;;;;;;;5.54;64.40;100539.75;5272008;33;34964;-88
2022/03/04 09:16:41;;;;;;;42.72;26.85;;;;;;;5.84;63.14;100541.41;5275910;33;34501;-87
2022/03/04 09:19:44;;;;;;;43.25;26.67;;;;;;;5.89;62.13;100539.16;5277687;33;33794;-87
2022/03/04 09:23:00;;;;;;;41.03;25.15;;;;;;;5.82;62.23;100537.19;5284714;33;33408;-88
2022/03/04 09:26:03;;;;;;;50.35;27.10;;;;;;;5.96;61.00;100541.28;5276078;33;33785;-87
2022/03/04 09:29:06;;;;;;;46.10;25.58;;;;;;;6.32;60.92;100536.97;5285418;33;33425;-88
2022/03/04 09:32:09;;;;;;;45.10;26.25;;;;;;;6.37;58.75;100546.22;5304577;33;33741;-87
2022/03/04 09:35:12;;;;;;;43.28;26.15;;;;;;;6.80;57.18;100547.44;5290446;33;34374;-88
2022/03/04 09:38:15;;;;;;;41.22;25.88;;;;;;;6.84;56.05;100545.28;5286487;33;34561;-87
2022/03/04 09:41:19;;;;;;;42.30;25.85;;;;;;;6.67;54.66;100549.63;5289467;33;33812;-87
2022/03/04 09:44:28;;;;;;;39.90;25.25;;;;;;;6.93;54.15;100554.25;5273683;33;33576;-87
2022/03/04 09:47:31;;;;;;;42.60;26.15;;;;;;;7.01;54.17;100543.66;5284795;33;34255;-87
2022/03/04 09:50:35;;;;;;;38.20;25.20;;;;;;;6.57;54.48;100549.66;5280501;33;34723;-87
2022/03/04 09:53:38;;;;;;;39.95;24.98;;;;;;;6.31;55.42;100556.66;5280049;33;33957;-87
2022/03/04 09:56:41;;;;;;;39.05;23.12;;;;;;;6.29;55.18;100550.62;5284799;33;34452;-87
2022/03/04 09:59:44;;;;;;;40.63;24.75;;;;;;;6.29;55.74;100543.47;5276146;33;34084;-87
2022/03/04 10:02:47;;;;;;;39.00;23.83;;;;;;;6.01;55.96;100553.22;5277216;33;33702;-87
2022/03/04 10:05:55;;;;;;;42.38;25.02;;;;;;;5.89;56.62;100549.00;5271705;33;33791;-87
2022/03/04 10:08:58;;;;;;;37.38;24.63;;;;;;;5.93;55.39;100547.75;5273488;33;34449;-87
2022/03/04 10:12:02;;;;;;;42.15;24.58;;;;;;;6.01;54.94;100542.53;5273202;33;33871;-87
2022/03/04 10:15:07;;;;;;;40.15;24.10;;;;;;;6.07;56.38;100546.47;5282474;33;34953;-86
2022/03/04 10:18:11;;;;;;;40.72;23.58;;;;;;;6.20;56.64;100552.34;5294915;33;34064;-88
2022/03/04 10:21:13;;;;;;;40.55;23.95;;;;;;;5.94;56.06;100551.25;5290854;33;34508;-86
2022/03/04 10:24:27;;;;;;;41.15;25.12;;;;;;;6.01;56.43;100550.56;5291153;33;34038;-88
2022/03/04 10:27:34;;;;;;;42.03;24.73;;;;;;;5.81;57.73;100544.38;5281815;33;34278;-88
2022/03/04 10:30:41;;;;;;;43.80;24.80;;;;;;;5.89;57.07;100541.00;5286190;33;33534;-88
2022/03/04 10:33:44;;;;;;;39.10;23.92;;;;;;;5.62;57.40;100541.75;5284088;33;34619;-92
2022/03/04 10:36:54;;;;;;;39.95;25.17;;;;;;;5.68;57.48;100543.84;5284561;33;35065;-90
2022/03/04 10:40:01;;;;;;;40.22;22.73;;;;;;;5.51;58.28;100545.37;5300545;33;34132;-89
2022/03/04 10:43:06;;;;;;;40.72;24.42;;;;;;;5.97;56.90;100538.47;5297272;33;34918;-89
2022/03/04 10:46:09;;;;;;;40.67;23.38;;;;;;;6.17;56.25;100539.25;5275252;33;34585;-89
2022/03/04 10:49:23;;;;;;;40.95;25.55;;;;;;;6.73;54.54;100535.66;5283259;33;34651;-86
2022/03/04 10:52:26;;;;;;;37.85;24.25;;;;;;;7.42;54.00;100539.53;5276572;33;34415;-86
2022/03/04 10:55:34;;;;;;;42.00;24.90;;;;;;;7.72;51.07;100532.97;5273082;33;33560;-89
2022/03/04 10:58:39;;;;;;;40.30;25.48;;;;;;;7.73;51.17;100531.13;5284480;33;34146;-86
2022/03/04 11:01:48;;;;;;;38.00;25.23;;;;;;;7.53;51.29;100522.41;5286148;33;35749;-86
2022/03/04 11:04:51;;;;;;;42.00;26.92;;;;;;;7.63;51.46;100535.72;5276398;33;33566;-88
2022/03/04 11:07:55;;;;;;;42.67;26.65;;;;;;;7.80;51.27;100528.66;5272873;33;34393;-88
2022/03/04 11:10:59;;;;;;;43.42;26.87;;;;;;;7.40;51.38;100533.53;5283494;33;33931;-88
2022/03/04 11:14:03;;;;;;;38.08;24.75;;;;;;;7.09;52.69;100533.03;5288171;33;34361;-87
2022/03/04 11:17:07;;;;;;;42.53;26.27;;;;;;;6.92;52.34;100531.19;5289572;33;34449;-87
2022/03/04 11:20:15;;;;;;;41.03;25.60;;;;;;;6.88;52.82;100538.69;5276494;33;35373;-87
2022/03/04 11:23:31;;;;;;;43.22;25.92;;;;;;;6.53;51.92;100539.41;5273350;33;33776;-87
2022/03/04 11:26:35;;;;;;;40.05;25.75;;;;;;;6.08;53.95;100534.78;5282898;33;33576;-87
2022/03/04 11:29:37;;;;;;;40.50;25.48;;;;;;;5.99;55.76;100535.66;5278355;33;33719;-87
2022/03/04 11:32:40;;;;;;;42.92;26.37;;;;;;;5.99;56.80;100536.50;5289484;33;33418;-87
2022/03/04 11:36:04;;;;;;;39.38;25.12;;;;;;;5.90;57.75;100534.66;5295974;33;34316;-87
2022/03/04 11:39:12;;;;;;;38.45;25.25;;;;;;;5.70;59.14;100541.84;5281906;33;34028;-87
2022/03/04 11:42:16;;;;;;;41.10;26.23;;;;;;;5.65;60.15;100547.62;5275155;33;34314;-87
2022/03/04 11:45:31;;;;;;;40.58;26.40;;;;;;;5.63;60.00;100546.91;5290198;33;33459;-86
2022/03/04 11:48:34;;;;;;;42.88;25.45;;;;;;;5.83;59.96;100539.72;5275985;33;34307;-88
2022/03/04 11:51:37;;;;;;;44.45;25.62;;;;;;;5.82;60.77;100540.72;5277235;33;33771;-87
2022/03/04 11:54:41;;;;;;;45.75;26.02;;;;;;;5.80;60.76;100536.50;5276300;33;33679;-88
2022/03/04 11:57:45;;;;;;;44.03;27.05;;;;;;;5.95;60.10;100544.97;5288240;33;33993;-87
2022/03/04 12:00:48;;;;;;;44.08;28.20;;;;;;;5.97;59.08;100538.47;5287423;33;35191;-87
2022/03/04 12:04:11;;;;;;;41.03;26.35;;;;;;;6.21;59.43;100546.00;5287216;33;33598;-87
2022/03/04 12:07:13;;;;;;;41.45;25.62;;;;;;;6.29;58.59;100546.13;5279222;33;34369;-87
2022/03/04 12:10:20;;;;;;;38.38;24.95;;;;;;;6.45;57.42;100539.31;5273208;33;34510;-87
2022/03/04 12:13:25;;;;;;;42.42;26.48;;;;;;;6.45;55.80;100544.66;5284886;33;33741;-87
2022/03/04 12:16:46;;;;;;;38.55;24.33;;;;;;;6.41;56.50;100546.78;5281583;33;34188;-87
2022/03/04 12:19:50;;;;;;;40.08;26.30;;;;;;;6.42;57.46;100552.97;5306087;33;34023;-87
2022/03/04 12:22:57;;;;;;;44.50;26.87;;;;;;;6.28;58.28;100546.25;5276183;33;33847;-87
2022/03/04 12:26:00;;;;;;;44.97;25.30;;;;;;;6.29;59.40;100553.31;5282325;33;33526;-86
2022/03/04 12:29:12;;;;;;;42.13;25.98;;;;;;;6.27;58.60;100548.09;5280987;33;34582;-87
2022/03/04 12:32:15;;;;;;;40.97;25.37;;;;;;;6.19;58.40;100547.97;5276996;33;33630;-87
2022/03/04 12:35:21;;;;;;;43.33;26.42;;;;;;;6.00;57.97;100548.03;5278283;33;35499;-87
2022/03/04 12:38:30;;;;;;;41.47;25.35;;;;;;;6.20;57.00;100544.34;5279708;33;33846;-87
2022/03/04 12:41:34;;;;;;;40.40;26.02;;;;;;;6.51;56.60;100547.56;5281261;33;33539;-87
2022/03/04 12:44:37;;;;;;;42.28;26.25;;;;;;;6.53;55.13;100547.44;5279946;33;34504;-87
2022/03/04 12:47:40;;;;;;;37.90;24.67;;;;;;;6.54;54.63;100549.13;5278846;33;34510;-87
2022/03/04 12:50:43;;;;;;;38.55;24.05;;;;;;;6.87;53.38;100541.47;5280910;33;177094;-88
2022/03/04 12:53:46;;;;;;;42.83;26.90;;;;;;;7.46;52.04;100540.09;5280472;33;33871;-88
2022/03/04 12:56:54;;;;;;;40.97;26.17;;;;;;;7.63;51.73;100535.72;5280365;33;34222;-88
2022/03/04 12:59:58;;;;;;;43.15;26.42;;;;;;;7.83;49.62;100537.22;5275759;33;33797;-88
2022/03/04 13:03:18;;;;;;;41.25;25.98;;;;;;;7.75;50.58;100528.25;5272235;33;33926;-87
2022/03/04 13:06:23;;;;;;;39.05;25.52;;;;;;;7.54;51.44;100533.97;5274747;33;33927;-88
2022/03/04 13:09:27;;;;;;;40.22;26.50;;;;;;;8.08;49.42;100524.00;5290714;33;34061;-88
2022/03/04 13:12:30;;;;;;;41.53;26.20;;;;;;;8.19;49.53;100518.37;5285157;33;33575;-88
2022/03/04 13:15:34;;;;;;;40.83;26.05;;;;;;;7.80;49.86;100523.28;5279571;33;33910;-88
2022/03/04 13:18:38;;;;;;;41.85;26.77;;;;;;;7.66;50.82;100520.19;5277253;33;33808;-88
2022/03/04 13:21:47;;;;;;;41.67;26.62;;;;;;;7.63;50.06;100516.94;5282406;33;33427;-88
2022/03/04 13:24:57;;;;;;;43.08;25.45;;;;;;;7.51;50.71;100521.72;5279740;33;33962;-88
2022/03/04 13:28:00;;;;;;;40.20;25.62;;;;;;;7.29;51.10;100528.37;5275433;33;34579;-88
2022/03/04 13:31:06;;;;;;;41.55;26.67;;;;;;;7.63;50.31;100519.63;5274924;33;33463;-88
2022/03/04 13:34:10;;;;;;;34.55;23.20;;;;;;;7.52;50.44;100514.50;5287340;33;34896;-88
2022/03/04 13:37:19;;;;;;;41.35;25.88;;;;;;;7.33;49.97;100527.06;5276580;33;34613;-88
2022/03/04 13:40:24;;;;;;;41.30;24.80;;;;;;;7.02;51.40;100526.62;5272782;33;33712;-88
2022/03/04 13:43:32;;;;;;;38.15;25.27;;;;;;;7.37;50.18;100520.44;5284198;33;33517;-88
2022/03/04 13:46:34;;;;;;;39.80;24.63;;;;;;;7.60;49.75;100514.59;5289693;33;35240;-90
2022/03/04 14:52:34;;;;;;;44.78;27.50;;;;;;;5.70;59.96;100523.16;1830189;28;20123;-89
2022/03/04 14:55:37;;;;;;;43.05;25.30;;;;;;;5.72;58.95;100523.84;5291905;33;32374;-89
2022/03/04 14:58:40;;;;;;;44.92;26.90;;;;;;;5.66;59.15;100522.59;5291924;33;33864;-89
2022/03/04 15:01:43;;;;;;;42.72;25.85;;;;;;;5.71;58.87;100524.84;5317484;28;34816;-89
2022/03/04 15:05:00;;;;;;;47.10;28.70;;;;;;;5.59;59.10;100526.00;5346788;28;34234;-89
2022/03/04 15:08:03;;;;;;;45.00;28.58;;;;;;;5.54;58.46;100526.41;5277574;33;33581;-89
2022/03/04 15:11:10;;;;;;;45.88;27.05;;;;;;;5.41;59.16;100516.03;5273777;33;34417;-89
2022/03/04 15:14:13;;;;;;;44.08;27.40;;;;;;;5.36;59.00;100522.78;5298699;28;33917;-88
2022/03/04 15:17:16;;;;;;;50.50;29.95;;;;;;;5.40;59.15;100525.00;5332550;28;35442;-88
2022/03/04 15:20:19;;;;;;;47.25;30.25;;;;;;;5.41;59.12;100523.16;5336803;28;34480;-89
2022/03/04 15:23:22;;;;;;;48.47;28.45;;;;;;;5.30;59.37;100534.03;5299645;28;33847;-89
2022/03/04 15:26:35;;;;;;;47.92;29.52;;;;;;;5.20;60.10;100523.31;5279497;33;34775;-89
2022/03/04 15:29:39;;;;;;;50.92;29.65;;;;;;;5.25;60.60;100529.09;5292231;33;35400;-91
2022/03/04 15:36:55;;;;;;;43.87;26.50;;;;;;;5.29;61.77;100541.16;5289892;33;34774;-89
2022/03/04 15:40:00;;;;;;;44.80;26.73;;;;;;;5.35;60.80;100537.09;5285087;33;33605;-89
2022/03/04 15:43:03;;;;;;;40.97;25.35;;;;;;;5.38;61.22;100539.47;5303656;28;34330;-89
2022/03/04 15:46:06;;;;;;;34.78;20.50;;;;;;;5.44;61.02;100536.25;5289558;33;33154;-90
2022/03/04 15:49:10;;;;;;;31.05;19.95;;;;;;;5.30;55.79;100540.19;5306921;28;34577;-89
2022/03/04 15:52:13;;;;;;;29.45;17.87;;;;;;;5.23;54.11;100537.25;5297359;33;34146;-90
2022/03/04 15:55:16;;;;;;;36.38;21.62;;;;;;;5.22;52.76;100538.22;5294638;33;33901;-89
2022/03/04 15:58:25;;;;;;;37.05;21.33;;;;;;;5.23;55.21;100537.25;5293878;33;34291;-90
2022/03/04 16:01:29;;;;;;;29.27;18.65;;;;;;;5.19;54.63;100540.31;5291142;33;34453;-90
2022/03/04 16:04:32;;;;;;;34.65;20.37;;;;;;;5.14;52.72;100539.88;5290540;33;34114;-90
2022/03/04 16:07:35;;;;;;;33.78;21.90;;;;;;;5.11;53.25;100546.34;5288910;33;33869;-89
2022/03/04 16:10:40;;;;;;;38.85;24.35;;;;;;;5.07;55.15;100552.09;5297489;33;33914;-89
2022/03/04 16:13:44;;;;;;;44.70;26.42;;;;;;;5.03;57.19;100546.22;5298008;33;34529;-90
2022/03/04 16:16:47;;;;;;;47.83;27.60;;;;;;;4.98;59.76;100545.78;5299236;33;34017;-89
2022/03/04 16:19:51;;;;;;;54.22;30.95;;;;;;;4.88;61.27;100548.41;5299507;33;33965;-90
2022/03/04 16:22:54;;;;;;;47.40;28.05;;;;;;;4.72;61.61;100546.25;5293328;33;33938;-90
2022/03/04 16:25:56;;;;;;;43.28;26.90;;;;;;;4.63;61.87;100548.91;5294571;33;33975;-89
2022/03/04 16:29:00;;;;;;;46.35;27.92;;;;;;;4.52;62.42;100549.84;5300282;33;34376;-89
2022/03/04 16:32:04;;;;;;;47.53;29.02;;;;;;;4.34;62.45;100559.47;5309093;33;33643;-90
2022/03/04 16:35:08;;;;;;;50.67;28.90;;;;;;;4.21;63.50;100562.31;5308091;33;34258;-90
2022/03/04 16:38:11;;;;;;;43.60;27.58;;;;;;;4.11;63.98;100559.59;5295789;33;33969;-90
2022/03/04 16:41:14;;;;;;;45.67;29.50;;;;;;;3.94;64.71;100560.22;5308659;33;34786;-90
2022/03/04 16:44:33;;;;;;;51.80;30.40;;;;;;;3.86;64.83;100564.38;5309118;33;35013;-90
